KGYY/GYY METAR and TAF weather

Enter ICAO airport designator
Station Type Date Time Source
KGYY METAR 2020/09/19 21:45 UTC NOAA

KGYY 192145Z 05007KT 10SM FEW250 16/05 A3032


Station Type Date Time Source
KGYY Decoded METAR 2020/09/19 21:45 UTC NOAA

Gary Regional, IN, United States (KGYY) 41-37N 087-25W
Sep 19, 2020 - 05:45 PM EDT / 2020.09.19 2145 UTC
Wind: from the NE (050 degrees) at 8 MPH (7 KT):0
Visibility: 10 mile(s):0
Sky conditions: mostly clear
Temperature: 60 F (16 C)
Dew Point: 41 F (5 C)
Relative Humidity: 47%
Pressure (altimeter): 30.32 in. Hg (1026 hPa)
ob: KGYY 192145Z 05007KT 10SM FEW250 16/05 A3032
cycle: 22

Station Type Date Time Source
KGYY TAF 2020/09/19 21:04 UTC NOAA

TAF
AMD KGYY 192102Z 1921/2018 05008KT P6SM SKC
FM200300 13004KT P6SM SKC
FM201400 12008KT P6SM FEW100

Example: see airport list